Portada
METAR-TAF:

METAR-TAF

Aeroports :

Townsville, Austràlia

latitud: 19-15S, longitud: 146-45E, altitud: 6 m

Observació

L'informe es va fer fa 29 minuts, a les 20:00 UTC
Vent 5 kt del Nord
Temperatura 25°C
Humitat 74%
Pressió 1012 hPa
Visibilitat 10 km o més
Núvols disperses a una alçada de 2500 ft

METAR: YBTL 132000Z AUTO 36005KT 9999 // SCT025 25/20 Q1012

Hora: 06:29 (20:29 UTC)

Pronòstic

L'informe es va fer fa 2 hores i 59 minuts, a les 17:30 UTC
Pronòstic vàlid del 13 a les 18 UTC al 14 a les 18 UTC
Vent 7 kt del Nord/Nord-Oest
Visibilitat 10 km o més
Núvols disperses a una alçada de 2500 ft
A partir de les 13 a les 2300 UTC
Vent 12 kt del Nord
Visibilitat 10 km o més
Escasses núvols a una alçada de 4500 ft
A partir de les 14 a les 1000 UTC
Vent 7 kt del Nord/Nord-Oest
Visibilitat 10 km o més
Núvols disperses a una alçada de 2500 ft

TAF: YBTL 131730Z 1318/1418 34007KT 9999 SCT025 FM132300 01012KT 9999 FEW045 FM141000 34007KT 9999 SCT025

Observacions i pronòstics meteorològics de més de 4000 aeroports (METAR i TAF).

Les estacions disponibles són els punts grocs i vermells al mapa.

Posi el ratolí al punt desitjat per veure el nom de l'estació.

Feu clic per veure les observacions i els pronòstics meteorològics.

Per canviar el mapa: feu clic els botons verds amb una creu de color negre per apropar; al botó verd amb un guió per allunyar la imatge; o en les fletxes verdes per a mapes adjacents.


METAR-TAF: